createdAt,value
2022-12-11T00:52:21.377Z,13.73
2022-12-11T01:22:30.614Z,15.38
2022-12-11T01:57:42.623Z,16.20
2022-12-11T02:17:56.761Z,13.80
2022-12-11T02:20:51.471Z,14.73
2022-12-11T02:28:08.258Z,14.15
2022-12-11T02:31:09.298Z,16.67
2022-12-11T02:43:12.579Z,14.05
2022-12-11T02:50:16.221Z,14.57
2022-12-11T02:57:21.014Z,14.23
2022-12-11T03:00:23.253Z,15.98
2022-12-11T03:03:48.675Z,14.10
2022-12-11T03:06:55.095Z,13.40
2022-12-11T03:09:55.928Z,13.18
2022-12-11T03:12:53.865Z,12.63
2022-12-11T03:15:59.413Z,13.43
2022-12-11T03:19:14.253Z,14.02
2022-12-11T03:22:43.337Z,14.07
2022-12-11T03:25:21.581Z,12.20
2022-12-11T03:28:00.320Z,14.55
2022-12-11T03:31:30.712Z,13.48
2022-12-11T03:43:02.169Z,12.82
2022-12-11T03:45:36.071Z,12.38
2022-12-11T03:55:07.488Z,11.85
2022-12-11T04:01:08.345Z,13.13
2022-12-11T04:04:21.199Z,12.90
2022-12-11T04:10:19.925Z,12.18
2022-12-11T04:12:52.390Z,13.60
2022-12-11T04:15:35.525Z,11.88
2022-12-11T04:18:24.048Z,14.23
2022-12-11T04:21:13.854Z,13.15
2022-12-11T04:24:18.414Z,14.25
2022-12-11T04:26:53.662Z,14.15
2022-12-11T04:29:27.148Z,13.15
2022-12-11T04:31:59.554Z,13.25
2022-12-11T04:34:41.716Z,12.18
2022-12-11T04:37:21.586Z,14.13
2022-12-11T04:39:53.150Z,14.43
2022-12-11T04:42:27.743Z,13.15
2022-12-11T04:45:05.340Z,13.43
2022-12-11T04:47:37.534Z,14.35
2022-12-11T04:50:48.774Z,13.80
2022-12-11T04:53:20.145Z,12.50
2022-12-11T04:55:51.007Z,12.10
2022-12-11T04:58:24.263Z,12.38
2022-12-11T05:01:17.242Z,11.85
2022-12-11T05:03:50.204Z,12.82
2022-12-11T05:06:21.285Z,11.50
2022-12-11T05:08:51.971Z,11.65
2022-12-11T05:11:24.251Z,13.00
2022-12-11T05:13:57.767Z,12.52
2022-12-11T05:16:36.683Z,12.27
2022-12-11T05:25:00.894Z,11.80
2022-12-11T05:47:33.533Z,11.93
2022-12-11T05:50:16.792Z,15.20
2022-12-11T05:53:28.551Z,14.30
2022-12-11T05:56:41.346Z,14.73
2022-12-11T05:59:22.491Z,14.52
2022-12-11T06:01:59.073Z,15.93
2022-12-11T06:04:36.895Z,15.57
2022-12-11T06:07:22.532Z,14.93
2022-12-11T06:10:01.354Z,15.70
2022-12-11T06:12:44.857Z,15.95
2022-12-11T06:15:24.345Z,16.38
2022-12-11T06:18:06.015Z,16.85
2022-12-11T06:20:41.758Z,18.08
2022-12-11T06:23:34.608Z,17.33
2022-12-11T06:26:07.888Z,15.75
2022-12-11T06:28:43.535Z,18.05
2022-12-11T06:31:18.059Z,16.67
2022-12-11T06:33:51.937Z,17.15
2022-12-11T06:37:30.493Z,19.92
2022-12-11T06:47:33.382Z,16.77
2022-12-11T06:50:02.505Z,21.02
2022-12-11T06:52:33.261Z,21.23
2022-12-11T06:55:01.283Z,18.85
2022-12-11T06:57:29.515Z,19.70
2022-12-11T06:59:57.744Z,18.83
2022-12-11T07:02:26.007Z,21.58
2022-12-11T07:04:55.601Z,19.58
2022-12-11T07:07:23.663Z,18.60
2022-12-11T07:09:53.177Z,18.13
2022-12-11T07:12:21.427Z,19.90
2022-12-11T07:14:58.637Z,20.02
2022-12-11T07:17:27.080Z,18.83
2022-12-11T07:19:56.761Z,19.35
2022-12-11T07:22:25.251Z,19.60
2022-12-11T07:24:53.704Z,19.10
2022-12-11T07:27:21.707Z,20.42
2022-12-11T07:29:52.272Z,18.15
2022-12-11T07:32:20.510Z,18.45
2022-12-11T07:34:51.983Z,17.98
2022-12-11T07:37:21.696Z,19.20
2022-12-11T07:39:50.057Z,20.05
2022-12-11T07:42:18.290Z,19.25
2022-12-11T07:44:46.645Z,19.20
2022-12-11T07:47:15.111Z,18.20
2022-12-11T07:49:43.437Z,17.70
2022-12-11T07:52:11.525Z,19.13
2022-12-11T07:54:41.335Z,21.65
2022-12-11T07:57:13.943Z,17.45
2022-12-11T07:59:42.818Z,19.83
2022-12-11T08:02:14.014Z,21.42
2022-12-11T08:04:42.125Z,21.00
2022-12-11T08:07:10.457Z,19.85
2022-12-11T08:09:38.571Z,18.33
2022-12-11T08:12:08.596Z,19.35
2022-12-11T08:14:37.153Z,22.02
2022-12-11T08:17:06.106Z,24.05
2022-12-11T08:19:43.035Z,21.85
2022-12-11T08:22:24.462Z,23.27
2022-12-11T08:25:03.430Z,20.65
2022-12-11T08:27:51.085Z,20.75
2022-12-11T08:34:50.220Z,17.48
2022-12-11T08:37:33.101Z,19.27
2022-12-11T08:48:03.281Z,19.60
2022-12-11T08:50:40.584Z,18.40
2022-12-11T08:53:18.707Z,15.70
2022-12-11T08:55:56.442Z,16.30
2022-12-11T08:58:24.710Z,15.50
2022-12-11T09:00:53.242Z,16.95
2022-12-11T09:03:23.477Z,16.10
2022-12-11T09:05:51.738Z,15.50
2022-12-11T09:08:19.913Z,17.00
2022-12-11T09:10:48.284Z,17.17
2022-12-11T09:13:16.528Z,16.45
2022-12-11T09:15:44.794Z,15.48
2022-12-11T09:18:13.003Z,15.15
2022-12-11T09:20:42.458Z,14.32
2022-12-11T09:23:10.846Z,15.10
2022-12-11T09:25:41.020Z,15.63
2022-12-11T09:28:09.417Z,12.70
2022-12-11T09:30:37.556Z,13.32
2022-12-11T09:33:07.367Z,13.90
2022-12-11T09:35:35.394Z,11.93
2022-12-11T09:38:05.114Z,13.75
2022-12-11T09:40:33.631Z,15.52
2022-12-11T09:43:07.876Z,13.15
2022-12-11T09:45:36.509Z,12.88
2022-12-11T09:48:04.965Z,13.13
2022-12-11T09:50:55.028Z,13.35
2022-12-11T09:53:34.072Z,14.25
2022-12-11T09:56:19.214Z,12.07
2022-12-11T09:59:03.240Z,11.85
2022-12-11T10:01:40.860Z,13.07
2022-12-11T10:04:30.436Z,14.00
2022-12-11T10:07:06.107Z,12.65
2022-12-11T10:09:44.554Z,12.07
2022-12-11T10:12:31.724Z,11.25
2022-12-11T10:15:16.209Z,12.73
2022-12-11T10:17:45.731Z,12.70
2022-12-11T10:20:23.660Z,12.38
2022-12-11T10:22:56.939Z,12.30
2022-12-11T10:25:32.358Z,12.07
2022-12-11T10:28:02.208Z,13.82
2022-12-11T10:30:38.084Z,14.30
2022-12-11T10:33:18.600Z,12.48
2022-12-11T10:35:51.045Z,12.93
2022-12-11T10:38:24.958Z,12.90
2022-12-11T10:40:57.147Z,14.38
2022-12-11T10:43:42.690Z,12.75
2022-12-11T10:46:17.428Z,12.68
2022-12-11T10:48:54.590Z,14.00
2022-12-11T10:51:25.620Z,12.70
2022-12-11T10:53:55.216Z,12.85
2022-12-11T10:56:29.568Z,13.27
2022-12-11T10:58:59.868Z,13.55
2022-12-11T11:01:30.196Z,14.35
2022-12-11T11:04:01.692Z,14.45
2022-12-11T11:06:30.083Z,14.43
2022-12-11T11:09:00.076Z,13.35
2022-12-11T11:11:34.314Z,13.00
2022-12-11T11:14:07.926Z,12.77
2022-12-11T11:16:38.374Z,14.65
2022-12-11T11:19:07.560Z,13.20
2022-12-11T11:22:08.285Z,12.57
2022-12-11T11:24:39.874Z,12.02
2022-12-11T11:27:21.194Z,13.15
2022-12-11T11:29:53.381Z,13.60
2022-12-11T11:32:25.943Z,15.40
2022-12-11T11:34:54.296Z,13.75
2022-12-11T11:37:31.380Z,13.45
2022-12-11T11:40:07.152Z,12.48
2022-12-11T11:42:45.995Z,14.02
2022-12-11T11:45:18.550Z,12.15
2022-12-11T11:47:58.147Z,12.85
2022-12-11T11:50:30.560Z,12.75
2022-12-11T11:53:06.782Z,13.60
2022-12-11T11:55:44.273Z,12.77
2022-12-11T11:58:19.436Z,13.30
2022-12-11T12:00:48.716Z,13.15
2022-12-11T12:03:20.536Z,15.50
2022-12-11T12:05:55.133Z,12.13
2022-12-11T12:08:35.930Z,13.70
2022-12-11T12:11:13.160Z,12.43
2022-12-11T12:13:52.103Z,12.60
2022-12-11T12:16:52.193Z,12.50
2022-12-11T12:19:36.531Z,13.55
2022-12-11T12:22:21.942Z,12.95
2022-12-11T12:25:08.381Z,11.32
2022-12-11T12:27:53.273Z,13.73
2022-12-11T12:30:24.168Z,13.23
2022-12-11T12:33:07.129Z,13.23
2022-12-11T12:35:40.431Z,13.00
2022-12-11T12:38:16.707Z,12.85
2022-12-11T12:40:58.223Z,13.45
2022-12-11T12:43:48.376Z,14.07
2022-12-11T12:46:28.923Z,13.55
2022-12-11T12:49:00.183Z,14.57
2022-12-11T12:51:29.601Z,16.15
2022-12-11T12:54:06.661Z,12.98
2022-12-11T12:56:40.653Z,15.07
2022-12-11T12:59:20.654Z,14.10
2022-12-11T13:01:55.190Z,13.52
2022-12-11T13:07:30.792Z,13.88
2022-12-11T13:10:06.203Z,13.98
2022-12-11T13:12:43.640Z,13.70
2022-12-11T13:15:26.520Z,15.52
2022-12-11T13:17:56.108Z,16.45
2022-12-11T13:20:27.028Z,15.40
2022-12-11T13:23:09.150Z,16.27
2022-12-11T13:25:49.336Z,16.27
2022-12-11T13:28:28.241Z,16.40
2022-12-11T13:31:20.510Z,15.23
2022-12-11T13:33:52.026Z,15.52
2022-12-11T13:36:31.223Z,15.73
2022-12-11T13:39:03.963Z,15.32
2022-12-11T13:41:35.919Z,14.95
2022-12-11T13:44:06.402Z,15.70
2022-12-11T13:46:37.908Z,17.58
2022-12-11T13:49:19.728Z,14.98
2022-12-11T13:51:54.493Z,15.18
2022-12-11T13:54:23.054Z,15.07
2022-12-11T13:56:55.639Z,16.20
2022-12-11T13:59:30.128Z,15.00
2022-12-11T14:02:02.391Z,14.38
2022-12-11T14:04:34.735Z,14.07
2022-12-11T14:07:03.688Z,15.15
2022-12-11T14:09:31.960Z,16.20
2022-12-11T14:12:00.137Z,14.88
2022-12-11T14:14:35.847Z,15.50
2022-12-11T14:17:04.399Z,15.93
2022-12-11T14:19:34.676Z,14.60
2022-12-11T14:22:05.227Z,14.82
2022-12-11T14:24:34.033Z,13.85
2022-12-11T14:27:02.127Z,14.75
2022-12-11T14:29:33.416Z,15.50
2022-12-11T14:32:05.982Z,15.00
2022-12-11T14:34:38.174Z,15.82
2022-12-11T14:37:08.634Z,18.55
2022-12-11T14:39:41.575Z,21.30
2022-12-11T14:42:15.981Z,18.13
2022-12-11T14:44:51.594Z,19.95
2022-12-11T14:47:24.549Z,20.80
2022-12-11T14:49:58.732Z,18.88
2022-12-11T14:52:31.529Z,21.00
2022-12-11T14:55:19.148Z,18.63
2022-12-11T14:57:50.705Z,19.10
2022-12-11T15:00:27.206Z,19.45
2022-12-11T15:03:00.930Z,19.45
2022-12-11T15:05:34.489Z,20.63
2022-12-11T15:08:24.520Z,21.67
2022-12-11T15:11:04.421Z,25.65
2022-12-11T15:13:53.696Z,23.55
2022-12-11T15:16:24.403Z,22.80
2022-12-11T15:18:55.670Z,24.67
2022-12-11T15:21:32.489Z,24.70
2022-12-11T15:24:03.379Z,20.98
2022-12-11T15:26:36.975Z,19.20
2022-12-11T15:29:07.779Z,21.67
2022-12-11T15:31:36.327Z,20.50
2022-12-11T15:34:04.520Z,22.73
2022-12-11T15:36:35.940Z,21.60
2022-12-11T15:39:08.780Z,23.05
2022-12-11T15:41:37.271Z,24.65
2022-12-11T15:44:05.706Z,25.00
2022-12-11T15:46:37.075Z,25.00
2022-12-11T15:49:13.504Z,25.63
2022-12-11T15:51:43.610Z,25.48
2022-12-11T15:54:12.052Z,21.30
2022-12-11T15:56:40.606Z,23.85
2022-12-11T15:59:09.467Z,23.60
2022-12-11T16:01:37.616Z,23.92
2022-12-11T16:04:06.096Z,24.48
2022-12-11T16:06:34.638Z,29.00
2022-12-11T16:09:05.214Z,25.67
2022-12-11T16:11:33.302Z,24.40
2022-12-11T16:14:04.623Z,22.17
2022-12-11T16:16:35.173Z,23.10
2022-12-11T16:19:03.366Z,25.02
2022-12-11T16:21:31.897Z,22.40
2022-12-11T16:24:00.228Z,21.15
2022-12-11T16:26:29.783Z,21.75
2022-12-11T16:28:58.265Z,22.58
2022-12-11T16:31:26.404Z,23.35
2022-12-11T16:33:54.615Z,24.58
2022-12-11T16:36:23.061Z,21.75
2022-12-11T16:38:54.164Z,23.40
2022-12-11T16:41:23.889Z,21.95
2022-12-11T16:43:55.005Z,22.15
2022-12-11T16:46:24.952Z,20.90
2022-12-11T16:48:53.073Z,22.85
2022-12-11T16:51:21.714Z,25.38
2022-12-11T16:53:49.775Z,23.60
2022-12-11T16:56:17.785Z,21.55
2022-12-11T16:58:47.589Z,23.15
2022-12-11T17:01:17.445Z,22.08
2022-12-11T17:03:45.567Z,20.63
2022-12-11T17:06:15.294Z,23.67
2022-12-11T17:08:43.383Z,24.27
2022-12-11T17:11:13.870Z,21.42
2022-12-11T17:13:46.716Z,22.52
2022-12-11T17:16:25.646Z,22.55
2022-12-11T17:18:56.623Z,24.17
2022-12-11T17:21:25.628Z,20.83
2022-12-11T17:27:40.712Z,25.55
2022-12-11T17:30:10.330Z,23.90
2022-12-11T17:32:39.812Z,22.05
2022-12-11T17:35:08.579Z,21.38
2022-12-11T17:37:36.715Z,22.10
2022-12-11T17:40:05.441Z,22.17
2022-12-11T17:42:33.700Z,18.90
2022-12-11T17:45:02.228Z,21.02
2022-12-11T17:47:30.412Z,21.30
2022-12-11T17:49:59.889Z,19.83
2022-12-11T17:52:33.825Z,21.00
2022-12-11T17:55:03.118Z,21.98
2022-12-11T17:57:31.326Z,20.92
2022-12-11T17:59:59.449Z,22.80
2022-12-11T18:02:27.623Z,21.10
2022-12-11T18:04:55.725Z,21.35
2022-12-11T18:07:25.255Z,24.55
2022-12-11T18:09:53.345Z,23.83
2022-12-11T18:12:21.407Z,23.17
2022-12-11T18:14:49.533Z,23.75
2022-12-11T18:17:17.648Z,25.05
2022-12-11T18:19:46.333Z,25.13
2022-12-11T18:22:14.826Z,21.85
2022-12-11T18:24:44.654Z,26.02
2022-12-11T18:27:16.925Z,24.50
2022-12-11T18:29:44.972Z,24.70
2022-12-11T18:32:13.056Z,25.45
2022-12-11T18:34:41.188Z,23.65
2022-12-11T18:37:09.474Z,19.83
2022-12-11T18:39:47.826Z,20.55
2022-12-11T18:42:32.893Z,22.45
2022-12-11T18:45:01.997Z,23.25
2022-12-11T18:47:30.515Z,21.08
2022-12-11T18:50:03.904Z,19.35
2022-12-11T18:52:35.524Z,22.85
2022-12-11T18:55:05.634Z,21.10
2022-12-11T18:57:33.757Z,20.75
2022-12-11T19:00:07.119Z,20.83
2022-12-11T19:02:35.375Z,21.83
2022-12-11T19:05:03.788Z,19.95
2022-12-11T19:07:32.275Z,19.83
2022-12-11T19:10:00.559Z,21.35
2022-12-11T19:12:29.997Z,19.67
2022-12-11T19:14:58.213Z,17.95
2022-12-11T19:17:26.386Z,18.48
2022-12-11T19:19:54.687Z,20.67
2022-12-11T19:22:22.865Z,20.88
2022-12-11T19:24:51.001Z,20.52
2022-12-11T19:27:19.182Z,21.60
2022-12-11T19:29:48.609Z,21.67
2022-12-11T19:32:16.909Z,20.85
2022-12-11T19:34:45.193Z,19.23
2022-12-11T19:37:16.013Z,19.65
2022-12-11T19:39:45.891Z,20.27
2022-12-11T19:42:37.595Z,21.23
2022-12-11T19:45:11.008Z,25.33
2022-12-11T19:47:41.615Z,25.33
2022-12-11T19:50:11.756Z,23.00
2022-12-11T19:52:46.312Z,26.80
2022-12-11T19:55:22.569Z,29.40
2022-12-11T19:57:53.174Z,26.98
2022-12-11T20:00:25.265Z,24.80
2022-12-11T20:02:57.235Z,23.85
2022-12-11T20:05:31.013Z,23.30
2022-12-11T20:08:27.303Z,26.27
2022-12-11T20:10:53.196Z,29.75
2022-12-11T20:13:24.583Z,29.98
2022-12-11T20:15:54.506Z,33.80
2022-12-11T20:18:22.703Z,28.25
2022-12-11T20:20:51.993Z,30.67
2022-12-11T20:23:21.916Z,26.27
2022-12-11T20:25:58.736Z,26.50
2022-12-11T20:28:27.935Z,29.38
2022-12-11T20:31:04.853Z,26.67
2022-12-11T20:33:33.012Z,28.30
2022-12-11T20:36:01.939Z,27.05
2022-12-11T20:38:34.478Z,27.08
2022-12-11T20:41:02.909Z,25.90
2022-12-11T20:43:31.242Z,25.23
2022-12-11T20:46:01.233Z,26.52
2022-12-11T20:48:29.588Z,25.50
2022-12-11T20:51:00.981Z,27.67
2022-12-11T20:53:29.501Z,25.48
2022-12-11T20:55:57.781Z,25.63
2022-12-11T20:58:25.883Z,27.75
2022-12-11T21:00:54.291Z,27.63
2022-12-11T21:03:23.839Z,26.90
2022-12-11T21:05:52.056Z,25.70
2022-12-11T21:08:20.299Z,24.50
2022-12-11T21:10:48.520Z,23.35
2022-12-11T21:13:16.800Z,24.38
2022-12-11T21:15:44.978Z,24.70
2022-12-11T21:18:13.073Z,25.20
2022-12-11T21:20:42.707Z,26.08
2022-12-11T21:23:10.892Z,23.77
2022-12-11T21:25:40.611Z,25.88
2022-12-11T21:28:09.395Z,24.58
2022-12-11T21:30:41.292Z,24.15
2022-12-11T21:33:09.557Z,23.60
2022-12-11T21:35:37.865Z,29.48
2022-12-11T21:38:07.370Z,33.72
2022-12-11T21:40:35.803Z,28.48
2022-12-11T21:43:04.016Z,28.45
2022-12-11T21:48:24.522Z,25.80
2022-12-11T21:50:52.658Z,27.50
2022-12-11T21:53:22.092Z,27.73
2022-12-11T21:55:50.215Z,21.52
2022-12-11T21:58:18.320Z,25.40
2022-12-11T22:01:15.394Z,26.90
2022-12-11T22:03:43.436Z,23.92
2022-12-11T22:06:11.453Z,24.60
2022-12-11T22:08:41.250Z,23.50
2022-12-11T22:11:10.038Z,27.80
2022-12-11T22:13:38.490Z,23.10
2022-12-11T22:16:06.876Z,22.90
2022-12-11T22:18:35.101Z,24.58
2022-12-11T22:21:03.359Z,23.10
2022-12-11T22:23:31.496Z,23.10
2022-12-11T22:26:01.398Z,24.20
2022-12-11T22:28:29.572Z,22.02
2022-12-11T22:30:57.716Z,25.92
2022-12-11T22:33:26.077Z,23.38
2022-12-11T22:35:57.645Z,23.08
2022-12-11T22:38:26.704Z,22.38
2022-12-11T22:40:55.462Z,24.20
2022-12-11T22:43:24.925Z,22.67
2022-12-11T22:45:53.050Z,22.75
2022-12-11T22:48:21.225Z,22.65
2022-12-11T22:50:49.325Z,21.60
2022-12-11T22:53:17.536Z,22.50
2022-12-11T22:55:45.608Z,25.63
2022-12-11T22:58:18.547Z,23.48
2022-12-11T23:00:50.900Z,23.33
2022-12-11T23:03:19.982Z,22.90
2022-12-11T23:05:48.017Z,22.75
2022-12-11T23:08:16.213Z,21.95
2022-12-11T23:10:44.335Z,22.65
2022-12-11T23:13:12.396Z,23.27
2022-12-11T23:15:40.428Z,21.00
2022-12-11T23:18:09.832Z,21.65
2022-12-11T23:20:38.034Z,20.58
2022-12-11T23:23:06.165Z,24.02
2022-12-11T23:25:34.294Z,19.88
2022-12-11T23:28:02.354Z,21.73
2022-12-11T23:30:30.608Z,19.33
2022-12-11T23:32:58.808Z,20.45
2022-12-11T23:35:28.292Z,17.80
2022-12-11T23:37:56.348Z,18.98
2022-12-11T23:40:24.476Z,19.75
2022-12-11T23:42:52.693Z,19.38
2022-12-11T23:45:21.176Z,19.33
2022-12-11T23:47:50.144Z,21.65
2022-12-11T23:50:18.360Z,19.27
2022-12-11T23:52:47.777Z,20.27
2022-12-11T23:55:15.859Z,17.95
2022-12-11T23:57:43.977Z,17.75
